sensor_id;sensor_type;location;lat;lon;timestamp;pressure;altitude;pressure_sealevel;temperature;humidity
47366;BME280;33105;47.964;7.982;2023-02-13T00:02:51;98467.50;;;-0.25;93.11
47366;BME280;33105;47.964;7.982;2023-02-13T00:05:53;98458.25;;;-0.40;94.09
47366;BME280;33105;47.964;7.982;2023-02-13T00:08:54;98465.75;;;-0.44;94.25
47366;BME280;33105;47.964;7.982;2023-02-13T00:11:57;98459.41;;;-0.43;94.81
47366;BME280;33105;47.964;7.982;2023-02-13T00:14:58;98468.22;;;-0.50;95.03
47366;BME280;33105;47.964;7.982;2023-02-13T00:18:01;98467.59;;;-0.44;94.11
47366;BME280;33105;47.964;7.982;2023-02-13T00:21:08;98469.25;;;-0.33;94.44
47366;BME280;33105;47.964;7.982;2023-02-13T00:24:11;98465.63;;;-0.42;94.21
47366;BME280;33105;47.964;7.982;2023-02-13T00:27:14;98462.31;;;-0.36;94.05
47366;BME280;33105;47.964;7.982;2023-02-13T00:30:15;98470.63;;;-0.29;94.40
47366;BME280;33105;47.964;7.982;2023-02-13T00:33:17;98476.31;;;-0.32;94.44
47366;BME280;33105;47.964;7.982;2023-02-13T00:36:21;98475.16;;;-0.30;94.14
47366;BME280;33105;47.964;7.982;2023-02-13T00:39:22;98466.41;;;-0.32;93.68
47366;BME280;33105;47.964;7.982;2023-02-13T00:42:25;98477.19;;;-0.42;93.89
47366;BME280;33105;47.964;7.982;2023-02-13T00:45:27;98475.25;;;-0.49;94.32
47366;BME280;33105;47.964;7.982;2023-02-13T00:48:32;98480.03;;;-0.43;94.47
47366;BME280;33105;47.964;7.982;2023-02-13T00:51:34;98480.03;;;-0.43;93.67
47366;BME280;33105;47.964;7.982;2023-02-13T00:54:36;98491.91;;;-0.46;93.49
47366;BME280;33105;47.964;7.982;2023-02-13T00:57:37;98487.22;;;-0.61;93.37
47366;BME280;33105;47.964;7.982;2023-02-13T01:00:40;98487.34;;;-0.63;93.46
47366;BME280;33105;47.964;7.982;2023-02-13T01:03:42;98487.50;;;-0.64;94.12
47366;BME280;33105;47.964;7.982;2023-02-13T01:06:45;98491.28;;;-0.57;94.60
47366;BME280;33105;47.964;7.982;2023-02-13T01:09:47;98487.16;;;-0.52;93.85
47366;BME280;33105;47.964;7.982;2023-02-13T01:12:48;98493.97;;;-0.57;93.53
47366;BME280;33105;47.964;7.982;2023-02-13T01:15:50;98492.38;;;-0.50;93.93
47366;BME280;33105;47.964;7.982;2023-02-13T01:18:53;98493.41;;;-0.61;93.98
47366;BME280;33105;47.964;7.982;2023-02-13T01:21:55;98493.56;;;-0.62;94.27
47366;BME280;33105;47.964;7.982;2023-02-13T01:24:57;98488.47;;;-0.56;93.81
47366;BME280;33105;47.964;7.982;2023-02-13T01:28:00;98489.69;;;-0.50;94.41
47366;BME280;33105;47.964;7.982;2023-02-13T01:31:01;98491.69;;;-0.52;94.25
47366;BME280;33105;47.964;7.982;2023-02-13T01:34:03;98489.47;;;-0.39;94.84
47366;BME280;33105;47.964;7.982;2023-02-13T01:37:04;98487.94;;;-0.42;94.03
47366;BME280;33105;47.964;7.982;2023-02-13T01:40:10;98489.78;;;-0.42;94.15
47366;BME280;33105;47.964;7.982;2023-02-13T01:43:13;98496.59;;;-0.48;94.04
47366;BME280;33105;47.964;7.982;2023-02-13T01:46:20;98487.03;;;-0.50;94.15
47366;BME280;33105;47.964;7.982;2023-02-13T01:49:24;98489.19;;;-0.63;94.62
47366;BME280;33105;47.964;7.982;2023-02-13T01:52:27;98480.03;;;-0.71;93.66
47366;BME280;33105;47.964;7.982;2023-02-13T01:55:31;98485.47;;;-0.80;94.67
47366;BME280;33105;47.964;7.982;2023-02-13T01:58:37;98487.59;;;-0.84;94.15
47366;BME280;33105;47.964;7.982;2023-02-13T02:01:41;98488.75;;;-0.86;94.25
47366;BME280;33105;47.964;7.982;2023-02-13T02:04:47;98492.63;;;-1.08;94.29
47366;BME280;33105;47.964;7.982;2023-02-13T02:07:54;98489.13;;;-1.09;94.45
47366;BME280;33105;47.964;7.982;2023-02-13T02:11:05;98482.63;;;-1.16;93.97
47366;BME280;33105;47.964;7.982;2023-02-13T02:14:08;98477.69;;;-1.20;94.05
47366;BME280;33105;47.964;7.982;2023-02-13T02:17:10;98477.19;;;-1.33;94.53
47366;BME280;33105;47.964;7.982;2023-02-13T02:30:37;98467.97;;;-1.21;94.33
47366;BME280;33105;47.964;7.982;2023-02-13T02:44:23;98461.72;;;-1.02;94.77
47366;BME280;33105;47.964;7.982;2023-02-13T02:51:23;98464.63;;;-0.96;94.88
47366;BME280;33105;47.964;7.982;2023-02-13T02:54:37;98468.41;;;-0.89;95.72
47366;BME280;33105;47.964;7.982;2023-02-13T02:58:40;98467.47;;;-0.70;96.08
47366;BME280;33105;47.964;7.982;2023-02-13T03:02:04;98469.72;;;-0.65;95.22
47366;BME280;33105;47.964;7.982;2023-02-13T03:05:30;98465.72;;;-0.61;95.68
47366;BME280;33105;47.964;7.982;2023-02-13T03:08:56;98472.66;;;-0.41;96.00
47366;BME280;33105;47.964;7.982;2023-02-13T03:12:21;98471.00;;;-0.24;95.40
47366;BME280;33105;47.964;7.982;2023-02-13T03:15:43;98470.78;;;-0.31;94.98
47366;BME280;33105;47.964;7.982;2023-02-13T03:19:12;98476.44;;;-0.34;95.16
47366;BME280;33105;47.964;7.982;2023-02-13T03:29:13;98471.94;;;-0.33;94.87
47366;BME280;33105;47.964;7.982;2023-02-13T03:43:13;98480.44;;;-0.38;94.74
47366;BME280;33105;47.964;7.982;2023-02-13T03:46:18;98482.81;;;-0.35;94.77
47366;BME280;33105;47.964;7.982;2023-02-13T03:49:45;98489.19;;;-0.63;94.75
47366;BME280;33105;47.964;7.982;2023-02-13T03:53:07;98482.34;;;-0.76;94.81
47366;BME280;33105;47.964;7.982;2023-02-13T03:56:12;98491.38;;;-1.04;94.43
47366;BME280;33105;47.964;7.982;2023-02-13T03:59:35;98487.69;;;-1.03;95.04
47366;BME280;33105;47.964;7.982;2023-02-13T04:02:45;98495.03;;;-1.05;95.64
47366;BME280;33105;47.964;7.982;2023-02-13T04:05:53;98487.13;;;-1.07;95.19
47366;BME280;33105;47.964;7.982;2023-02-13T04:08:59;98487.41;;;-1.00;95.10
47366;BME280;33105;47.964;7.982;2023-02-13T04:15:18;98496.28;;;-0.72;95.94
47366;BME280;33105;47.964;7.982;2023-02-13T04:18:26;98499.66;;;-0.70;95.40
47366;BME280;33105;47.964;7.982;2023-02-13T04:21:32;98495.75;;;-0.76;95.30
47366;BME280;33105;47.964;7.982;2023-02-13T04:24:34;98497.06;;;-0.80;96.01
47366;BME280;33105;47.964;7.982;2023-02-13T04:27:36;98499.13;;;-0.74;95.96
47366;BME280;33105;47.964;7.982;2023-02-13T04:30:38;98498.75;;;-0.79;95.82
47366;BME280;33105;47.964;7.982;2023-02-13T04:33:40;98498.28;;;-0.74;95.52
47366;BME280;33105;47.964;7.982;2023-02-13T04:36:42;98501.31;;;-0.87;95.71
47366;BME280;33105;47.964;7.982;2023-02-13T04:39:44;98499.22;;;-0.93;96.70
47366;BME280;33105;47.964;7.982;2023-02-13T04:42:47;98499.34;;;-0.94;95.97
47366;BME280;33105;47.964;7.982;2023-02-13T04:45:50;98502.00;;;-0.85;95.78
47366;BME280;33105;47.964;7.982;2023-02-13T04:48:51;98495.28;;;-0.98;95.48
47366;BME280;33105;47.964;7.982;2023-02-13T04:51:53;98500.09;;;-1.02;95.78
47366;BME280;33105;47.964;7.982;2023-02-13T04:54:55;98498.16;;;-1.10;95.24
47366;BME280;33105;47.964;7.982;2023-02-13T04:57:58;98498.22;;;-1.39;94.79
47366;BME280;33105;47.964;7.982;2023-02-13T05:01:00;98496.66;;;-1.41;95.81
47366;BME280;33105;47.964;7.982;2023-02-13T05:04:02;98503.34;;;-1.55;96.36
47366;BME280;33105;47.964;7.982;2023-02-13T05:07:03;98509.78;;;-1.48;96.17
47366;BME280;33105;47.964;7.982;2023-02-13T05:10:05;98505.56;;;-1.41;95.81
47366;BME280;33105;47.964;7.982;2023-02-13T05:13:07;98505.69;;;-1.32;95.83
47366;BME280;33105;47.964;7.982;2023-02-13T05:16:09;98506.25;;;-1.29;96.18
47366;BME280;33105;47.964;7.982;2023-02-13T05:19:12;98509.75;;;-1.19;96.04
47366;BME280;33105;47.964;7.982;2023-02-13T05:22:13;98510.59;;;-1.18;96.47
47366;BME280;33105;47.964;7.982;2023-02-13T05:25:36;98512.28;;;-1.17;96.79
47366;BME280;33105;47.964;7.982;2023-02-13T05:28:37;98518.22;;;-1.23;96.81
47366;BME280;33105;47.964;7.982;2023-02-13T05:31:58;98517.63;;;-1.17;96.04
47366;BME280;33105;47.964;7.982;2023-02-13T05:34:59;98521.03;;;-1.15;96.55
47366;BME280;33105;47.964;7.982;2023-02-13T05:38:01;98516.50;;;-1.05;95.58
47366;BME280;33105;47.964;7.982;2023-02-13T05:41:03;98516.78;;;-1.08;95.82
47366;BME280;33105;47.964;7.982;2023-02-13T05:44:04;98515.09;;;-1.09;95.51
47366;BME280;33105;47.964;7.982;2023-02-13T05:47:06;98521.59;;;-1.12;95.46
47366;BME280;33105;47.964;7.982;2023-02-13T05:50:08;98524.28;;;-1.21;95.30
47366;BME280;33105;47.964;7.982;2023-02-13T05:53:09;98526.16;;;-1.31;95.67
47366;BME280;33105;47.964;7.982;2023-02-13T05:56:11;98534.19;;;-1.31;95.11
47366;BME280;33105;47.964;7.982;2023-02-13T05:59:13;98529.25;;;-1.36;95.39
47366;BME280;33105;47.964;7.982;2023-02-13T06:02:15;98528.13;;;-1.43;95.75
47366;BME280;33105;47.964;7.982;2023-02-13T06:05:16;98529.25;;;-1.46;96.12
47366;BME280;33105;47.964;7.982;2023-02-13T06:08:18;98529.97;;;-1.44;95.84
47366;BME280;33105;47.964;7.982;2023-02-13T06:11:20;98533.34;;;-1.42;95.47
47366;BME280;33105;47.964;7.982;2023-02-13T06:14:21;98526.44;;;-1.44;95.76
47366;BME280;33105;47.964;7.982;2023-02-13T06:17:23;98532.09;;;-1.47;95.86
47366;BME280;33105;47.964;7.982;2023-02-13T06:20:25;98544.78;;;-1.30;96.26
47366;BME280;33105;47.964;7.982;2023-02-13T06:23:27;98536.31;;;-1.35;96.10
47366;BME280;33105;47.964;7.982;2023-02-13T06:26:28;98541.25;;;-1.30;95.71
47366;BME280;33105;47.964;7.982;2023-02-13T06:29:34;98539.97;;;-1.26;95.79
47366;BME280;33105;47.964;7.982;2023-02-13T06:32:36;98548.59;;;-1.32;95.84
47366;BME280;33105;47.964;7.982;2023-02-13T06:35:38;98547.03;;;-1.35;95.99
47366;BME280;33105;47.964;7.982;2023-02-13T06:38:41;98543.50;;;-1.35;96.27
47366;BME280;33105;47.964;7.982;2023-02-13T06:41:44;98544.78;;;-1.30;96.38
47366;BME280;33105;47.964;7.982;2023-02-13T06:44:47;98549.56;;;-1.33;96.50
47366;BME280;33105;47.964;7.982;2023-02-13T06:47:49;98553.38;;;-1.26;96.29
47366;BME280;33105;47.964;7.982;2023-02-13T06:50:52;98536.16;;;-1.24;96.14
47366;BME280;33105;47.964;7.982;2023-02-13T06:53:54;98538.69;;;-1.22;95.72
47366;BME280;33105;47.964;7.982;2023-02-13T06:56:56;98542.75;;;-1.18;96.11
47366;BME280;33105;47.964;7.982;2023-02-13T06:59:59;98530.63;;;-1.13;95.67
47366;BME280;33105;47.964;7.982;2023-02-13T07:03:03;98543.03;;;-1.02;95.89
47366;BME280;33105;47.964;7.982;2023-02-13T07:06:06;98540.16;;;-0.91;95.65
47366;BME280;33105;47.964;7.982;2023-02-13T07:09:07;98541.13;;;-0.92;95.27
47366;BME280;33105;47.964;7.982;2023-02-13T07:12:09;98541.50;;;-1.14;95.00
47366;BME280;33105;47.964;7.982;2023-02-13T07:15:11;98548.19;;;-1.57;95.65
47366;BME280;33105;47.964;7.982;2023-02-13T07:18:13;98542.56;;;-1.54;95.88
47366;BME280;33105;47.964;7.982;2023-02-13T07:21:15;98551.28;;;-1.32;95.74
47366;BME280;33105;47.964;7.982;2023-02-13T07:24:17;98551.69;;;-1.27;95.62
47366;BME280;33105;47.964;7.982;2023-02-13T07:27:19;98551.66;;;-1.18;95.57
47366;BME280;33105;47.964;7.982;2023-02-13T07:30:21;98551.66;;;-1.08;95.12
47366;BME280;33105;47.964;7.982;2023-02-13T07:33:23;98562.78;;;-1.03;95.14
47366;BME280;33105;47.964;7.982;2023-02-13T07:36:26;98558.84;;;-1.09;94.49
47366;BME280;33105;47.964;7.982;2023-02-13T07:39:28;98558.00;;;-0.99;94.62
47366;BME280;33105;47.964;7.982;2023-02-13T07:42:32;98564.16;;;-0.99;94.75
47366;BME280;33105;47.964;7.982;2023-02-13T07:45:35;98560.22;;;-0.95;95.04
47366;BME280;33105;47.964;7.982;2023-02-13T07:48:36;98565.00;;;-0.89;95.03
47366;BME280;33105;47.964;7.982;2023-02-13T07:51:37;98557.06;;;-0.81;94.42
47366;BME280;33105;47.964;7.982;2023-02-13T07:54:39;98561.53;;;-0.72;94.60
47366;BME280;33105;47.964;7.982;2023-02-13T07:57:47;98557.97;;;-0.62;95.15
47366;BME280;33105;47.964;7.982;2023-02-13T08:00:50;98557.81;;;-0.51;94.58
47366;BME280;33105;47.964;7.982;2023-02-13T08:03:54;98553.22;;;-0.41;94.48
47366;BME280;33105;47.964;7.982;2023-02-13T08:06:55;98554.44;;;-0.26;94.48
47366;BME280;33105;47.964;7.982;2023-02-13T08:09:58;98559.28;;;-0.12;94.18
47366;BME280;33105;47.964;7.982;2023-02-13T08:13:18;98553.59;;;-0.09;94.23
47366;BME280;33105;47.964;7.982;2023-02-13T08:16:19;98552.16;;;-0.03;93.56
47366;BME280;33105;47.964;7.982;2023-02-13T08:19:22;98556.91;;;0.03;93.68
47366;BME280;33105;47.964;7.982;2023-02-13T08:22:24;98563.69;;;0.07;93.72
47366;BME280;33105;47.964;7.982;2023-02-13T08:25:26;98558.16;;;0.09;93.19
47366;BME280;33105;47.964;7.982;2023-02-13T08:28:28;98566.16;;;0.18;93.71
47366;BME280;33105;47.964;7.982;2023-02-13T08:31:31;98555.94;;;0.22;94.22
47366;BME280;33105;47.964;7.982;2023-02-13T08:34:33;98561.38;;;0.30;93.64
47366;BME280;33105;47.964;7.982;2023-02-13T08:37:34;98558.94;;;0.37;93.49
47366;BME280;33105;47.964;7.982;2023-02-13T08:40:36;98558.22;;;0.52;92.88
47366;BME280;33105;47.964;7.982;2023-02-13T08:43:38;98562.84;;;0.60;92.20
47366;BME280;33105;47.964;7.982;2023-02-13T08:46:39;98554.84;;;0.68;91.88
47366;BME280;33105;47.964;7.982;2023-02-13T08:49:42;98561.66;;;0.80;91.79
47366;BME280;33105;47.964;7.982;2023-02-13T08:52:43;98554.75;;;1.03;92.13
47366;BME280;33105;47.964;7.982;2023-02-13T08:55:55;98550.69;;;1.25;91.20
47366;BME280;33105;47.964;7.982;2023-02-13T08:58:57;98551.06;;;1.30;90.24
47366;BME280;33105;47.964;7.982;2023-02-13T09:01:59;98543.94;;;1.47;89.54
47366;BME280;33105;47.964;7.982;2023-02-13T09:05:00;98545.84;;;1.63;89.35
47366;BME280;33105;47.964;7.982;2023-02-13T09:08:02;98551.94;;;1.65;90.46
47366;BME280;33105;47.964;7.982;2023-02-13T09:11:04;98550.09;;;1.74;90.12
47366;BME280;33105;47.964;7.982;2023-02-13T09:14:07;98549.28;;;1.73;89.31
47366;BME280;33105;47.964;7.982;2023-02-13T09:17:09;98553.34;;;1.85;90.04
47366;BME280;33105;47.964;7.982;2023-02-13T09:20:12;98549.69;;;2.02;88.33
47366;BME280;33105;47.964;7.982;2023-02-13T09:23:15;98547.22;;;2.17;88.61
47366;BME280;33105;47.964;7.982;2023-02-13T09:26:17;98540.97;;;2.17;89.09
47366;BME280;33105;47.964;7.982;2023-02-13T09:29:19;98544.69;;;2.32;89.07
47366;BME280;33105;47.964;7.982;2023-02-13T09:32:21;98547.09;;;2.43;89.09
47366;BME280;33105;47.964;7.982;2023-02-13T09:35:24;98538.97;;;2.51;88.40
47366;BME280;33105;47.964;7.982;2023-02-13T09:38:26;98540.34;;;2.55;88.57
47366;BME280;33105;47.964;7.982;2023-02-13T09:41:34;98550.81;;;2.58;88.75
47366;BME280;33105;47.964;7.982;2023-02-13T09:44:40;98549.78;;;2.59;88.33
47366;BME280;33105;47.964;7.982;2023-02-13T09:47:46;98539.34;;;2.89;87.34
47366;BME280;33105;47.964;7.982;2023-02-13T09:50:49;98535.44;;;3.16;85.83
47366;BME280;33105;47.964;7.982;2023-02-13T09:53:55;98544.66;;;3.29;85.39
47366;BME280;33105;47.964;7.982;2023-02-13T09:57:45;98542.59;;;3.48;86.26
47366;BME280;33105;47.964;7.982;2023-02-13T10:00:29;98539.34;;;3.60;85.02
47366;BME280;33105;47.964;7.982;2023-02-13T10:03:43;98541.97;;;3.76;86.10
47366;BME280;33105;47.964;7.982;2023-02-13T10:17:40;98528.56;;;4.22;80.66
47366;BME280;33105;47.964;7.982;2023-02-13T10:23:56;98516.97;;;4.59;81.04
47366;BME280;33105;47.964;7.982;2023-02-13T10:27:15;98512.53;;;4.66;82.10
47366;BME280;33105;47.964;7.982;2023-02-13T10:30:24;98508.06;;;4.73;81.40
47366;BME280;33105;47.964;7.982;2023-02-13T10:33:37;98504.25;;;4.83;81.05
47366;BME280;33105;47.964;7.982;2023-02-13T10:36:46;98502.16;;;4.93;79.76
47366;BME280;33105;47.964;7.982;2023-02-13T10:39:50;98492.84;;;5.10;80.67
47366;BME280;33105;47.964;7.982;2023-02-13T10:43:05;98493.38;;;5.20;80.90
47366;BME280;33105;47.964;7.982;2023-02-13T10:52:51;98480.13;;;5.55;76.71
47366;BME280;33105;47.964;7.982;2023-02-13T10:56:09;98473.13;;;5.60;76.56
47366;BME280;33105;47.964;7.982;2023-02-13T10:59:29;98468.31;;;5.77;75.27
47366;BME280;33105;47.964;7.982;2023-02-13T11:02:33;98465.44;;;5.93;75.37
47366;BME280;33105;47.964;7.982;2023-02-13T11:05:38;98467.72;;;6.11;74.92
47366;BME280;33105;47.964;7.982;2023-02-13T11:08:43;98467.53;;;6.12;74.34
47366;BME280;33105;47.964;7.982;2023-02-13T11:11:46;98455.00;;;6.11;73.91
47366;BME280;33105;47.964;7.982;2023-02-13T11:15:01;98459.72;;;6.24;74.17
47366;BME280;33105;47.964;7.982;2023-02-13T11:18:31;98460.69;;;6.38;73.97
47366;BME280;33105;47.964;7.982;2023-02-13T11:21:35;98460.69;;;6.38;71.51
47366;BME280;33105;47.964;7.982;2023-02-13T11:24:52;98456.34;;;6.65;74.30
47366;BME280;33105;47.964;7.982;2023-02-13T11:28:16;98453.94;;;6.76;73.95
47366;BME280;33105;47.964;7.982;2023-02-13T11:31:25;98459.63;;;7.09;73.41
47366;BME280;33105;47.964;7.982;2023-02-13T11:34:29;98460.09;;;7.13;72.02
47366;BME280;33105;47.964;7.982;2023-02-13T11:37:31;98451.34;;;7.24;71.01
47366;BME280;33105;47.964;7.982;2023-02-13T11:40:34;98462.16;;;7.11;71.14
47366;BME280;33105;47.964;7.982;2023-02-13T11:43:49;98454.66;;;7.13;70.87
47366;BME280;33105;47.964;7.982;2023-02-13T11:46:53;98452.41;;;7.23;70.25
47366;BME280;33105;47.964;7.982;2023-02-13T11:49:55;98459.16;;;7.34;69.59
47366;BME280;33105;47.964;7.982;2023-02-13T11:53:00;98444.72;;;7.33;70.72
47366;BME280;33105;47.964;7.982;2023-02-13T11:56:14;98447.66;;;7.32;68.97
47366;BME280;33105;47.964;7.982;2023-02-13T11:59:17;98448.50;;;7.32;69.91
47366;BME280;33105;47.964;7.982;2023-02-13T12:02:30;98445.13;;;7.30;70.38
47366;BME280;33105;47.964;7.982;2023-02-13T12:05:32;98444.28;;;7.30;71.32
47366;BME280;33105;47.964;7.982;2023-02-13T12:08:36;98440.84;;;7.49;70.87
47366;BME280;33105;47.964;7.982;2023-02-13T12:14:42;98432.72;;;7.56;70.80
47366;BME280;33105;47.964;7.982;2023-02-13T12:17:52;98433.41;;;7.64;71.50
47366;BME280;33105;47.964;7.982;2023-02-13T12:38:00;98426.41;;;8.03;69.83
47366;BME280;33105;47.964;7.982;2023-02-13T12:47:52;98417.47;;;8.29;68.79
47366;BME280;33105;47.964;7.982;2023-02-13T12:57:47;98421.91;;;8.36;69.27
47366;BME280;33105;47.964;7.982;2023-02-13T13:23:32;98410.59;;;8.99;66.52
47366;BME280;33105;47.964;7.982;2023-02-13T13:26:40;98401.16;;;8.95;66.92
47366;BME280;33105;47.964;7.982;2023-02-13T13:29:46;98409.38;;;8.88;68.27
47366;BME280;33105;47.964;7.982;2023-02-13T13:32:55;98416.69;;;9.01;66.68
47366;BME280;33105;47.964;7.982;2023-02-13T13:39:35;98407.88;;;9.05;67.53
47366;BME280;33105;47.964;7.982;2023-02-13T13:49:57;98408.72;;;9.12;66.59
47366;BME280;33105;47.964;7.982;2023-02-13T13:56:09;98406.56;;;9.28;66.22
47366;BME280;33105;47.964;7.982;2023-02-13T14:02:48;98401.53;;;9.18;66.03
47366;BME280;33105;47.964;7.982;2023-02-13T14:06:02;98399.44;;;9.27;65.83
47366;BME280;33105;47.964;7.982;2023-02-13T14:09:05;98399.88;;;9.17;67.00
47366;BME280;33105;47.964;7.982;2023-02-13T14:12:34;98397.75;;;9.32;65.47
47366;BME280;33105;47.964;7.982;2023-02-13T14:18:44;98402.59;;;9.30;65.50
47366;BME280;33105;47.964;7.982;2023-02-13T14:21:47;98400.13;;;9.15;65.41
47366;BME280;33105;47.964;7.982;2023-02-13T14:24:53;98388.13;;;9.23;64.91
47366;BME280;33105;47.964;7.982;2023-02-13T14:28:04;98387.31;;;9.09;65.01
47366;BME280;33105;47.964;7.982;2023-02-13T14:31:33;98397.59;;;9.14;65.02
47366;BME280;33105;47.964;7.982;2023-02-13T14:34:37;98397.81;;;9.06;66.15
47366;BME280;33105;47.964;7.982;2023-02-13T14:37:53;98403.25;;;8.99;66.04
47366;BME280;33105;47.964;7.982;2023-02-13T14:40:55;98400.31;;;9.01;66.24
47366;BME280;33105;47.964;7.982;2023-02-13T14:43:58;98391.75;;;8.91;67.08
47366;BME280;33105;47.964;7.982;2023-02-13T14:50:35;98391.97;;;8.82;67.34
47366;BME280;33105;47.964;7.982;2023-02-13T14:53:49;98395.53;;;8.76;67.86
47366;BME280;33105;47.964;7.982;2023-02-13T14:56:59;98394.28;;;8.79;68.21
47366;BME280;33105;47.964;7.982;2023-02-13T15:00:21;98391.13;;;8.75;67.87
47366;BME280;33105;47.964;7.982;2023-02-13T15:03:40;98377.72;;;8.80;68.36
47366;BME280;33105;47.964;7.982;2023-02-13T15:06:44;98391.97;;;8.69;68.19
47366;BME280;33105;47.964;7.982;2023-02-13T15:13:35;98386.94;;;8.66;68.47
47366;BME280;33105;47.964;7.982;2023-02-13T15:16:37;98388.41;;;8.75;69.07
47366;BME280;33105;47.964;7.982;2023-02-13T15:19:43;98389.22;;;8.69;68.48
47366;BME280;33105;47.964;7.982;2023-02-13T15:22:46;98390.72;;;8.65;68.83
47366;BME280;33105;47.964;7.982;2023-02-13T15:26:04;98388.84;;;8.59;68.79
47366;BME280;33105;47.964;7.982;2023-02-13T15:29:16;98387.34;;;8.37;69.69
47366;BME280;33105;47.964;7.982;2023-02-13T15:32:22;98391.91;;;8.23;70.59
47366;BME280;33105;47.964;7.982;2023-02-13T15:35:32;98391.91;;;8.16;70.61
47366;BME280;33105;47.964;7.982;2023-02-13T15:38:35;98390.63;;;8.06;70.72
47366;BME280;33105;47.964;7.982;2023-02-13T15:41:46;98388.50;;;7.88;70.66
47366;BME280;33105;47.964;7.982;2023-02-13T15:44:51;98398.88;;;7.65;71.99
47366;BME280;33105;47.964;7.982;2023-02-13T15:47:57;98398.97;;;7.37;72.41
47366;BME280;33105;47.964;7.982;2023-02-13T15:51:01;98388.63;;;7.26;73.60
47366;BME280;33105;47.964;7.982;2023-02-13T15:54:27;98396.69;;;7.06;74.35
47366;BME280;33105;47.964;7.982;2023-02-13T15:57:27;98397.28;;;7.01;74.07
47366;BME280;33105;47.964;7.982;2023-02-13T16:00:34;98395.31;;;6.89;74.69
47366;BME280;33105;47.964;7.982;2023-02-13T16:03:39;98395.22;;;6.75;75.44
47366;BME280;33105;47.964;7.982;2023-02-13T16:06:43;98393.28;;;6.69;75.24
47366;BME280;33105;47.964;7.982;2023-02-13T16:09:45;98392.53;;;6.54;76.03
47366;BME280;33105;47.964;7.982;2023-02-13T16:12:47;98387.66;;;6.43;76.35
47366;BME280;33105;47.964;7.982;2023-02-13T16:15:48;98390.06;;;6.31;76.67
47366;BME280;33105;47.964;7.982;2023-02-13T16:18:52;98385.75;;;6.16;77.59
47366;BME280;33105;47.964;7.982;2023-02-13T16:21:57;98391.03;;;6.02;78.36
47366;BME280;33105;47.964;7.982;2023-02-13T16:28:27;98387.44;;;5.80;79.19
47366;BME280;33105;47.964;7.982;2023-02-13T16:31:32;98390.19;;;5.66;80.09
47366;BME280;33105;47.964;7.982;2023-02-13T16:34:34;98403.00;;;5.57;80.53
47366;BME280;33105;47.964;7.982;2023-02-13T16:37:49;98400.47;;;5.20;81.11
47366;BME280;33105;47.964;7.982;2023-02-13T16:40:53;98400.72;;;5.10;81.52
47366;BME280;33105;47.964;7.982;2023-02-13T16:44:20;98410.50;;;4.82;82.28
47366;BME280;33105;47.964;7.982;2023-02-13T16:47:24;98406.00;;;4.74;83.11
47366;BME280;33105;47.964;7.982;2023-02-13T16:50:25;98405.16;;;4.73;82.37
47366;BME280;33105;47.964;7.982;2023-02-13T16:53:27;98400.78;;;4.58;82.57
47366;BME280;33105;47.964;7.982;2023-02-13T17:00:17;98402.88;;;4.33;82.14
47366;BME280;33105;47.964;7.982;2023-02-13T17:03:21;98406.28;;;4.27;82.58
47366;BME280;33105;47.964;7.982;2023-02-13T17:06:23;98411.78;;;4.19;82.20
47366;BME280;33105;47.964;7.982;2023-02-13T17:09:25;98414.53;;;4.10;82.52
47366;BME280;33105;47.964;7.982;2023-02-13T17:12:29;98410.94;;;3.95;81.82
47366;BME280;33105;47.964;7.982;2023-02-13T17:15:33;98422.50;;;3.81;82.37
47366;BME280;33105;47.964;7.982;2023-02-13T17:18:35;98425.56;;;3.78;82.86
47366;BME280;33105;47.964;7.982;2023-02-13T17:21:37;98430.38;;;3.68;83.29
47366;BME280;33105;47.964;7.982;2023-02-13T17:24:40;98437.03;;;3.49;83.38
47366;BME280;33105;47.964;7.982;2023-02-13T17:27:42;98439.22;;;3.54;83.47
47366;BME280;33105;47.964;7.982;2023-02-13T17:30:44;98443.44;;;3.56;83.59
47366;BME280;33105;47.964;7.982;2023-02-13T17:33:47;98444.63;;;3.54;84.80
47366;BME280;33105;47.964;7.982;2023-02-13T17:36:49;98451.13;;;3.36;85.05
47366;BME280;33105;47.964;7.982;2023-02-13T17:39:53;98447.06;;;3.32;84.05
47366;BME280;33105;47.964;7.982;2023-02-13T17:42:57;98451.13;;;3.36;84.69
47366;BME280;33105;47.964;7.982;2023-02-13T17:45:59;98451.63;;;3.32;84.06
47366;BME280;33105;47.964;7.982;2023-02-13T17:49:00;98458.41;;;3.28;83.49
47366;BME280;33105;47.964;7.982;2023-02-13T17:52:01;98458.75;;;3.25;84.18
47366;BME280;33105;47.964;7.982;2023-02-13T17:55:05;98460.66;;;3.16;83.58
47366;BME280;33105;47.964;7.982;2023-02-13T17:58:07;98458.28;;;3.13;84.20
47366;BME280;33105;47.964;7.982;2023-02-13T18:01:10;98455.59;;;3.05;83.96
47366;BME280;33105;47.964;7.982;2023-02-13T18:04:12;98462.41;;;2.93;84.46
47366;BME280;33105;47.964;7.982;2023-02-13T18:07:19;98457.84;;;2.93;84.12
47366;BME280;33105;47.964;7.982;2023-02-13T18:10:29;98455.50;;;2.82;84.24
47366;BME280;33105;47.964;7.982;2023-02-13T18:13:31;98453.97;;;2.80;84.86
47366;BME280;33105;47.964;7.982;2023-02-13T18:16:33;98459.19;;;2.81;84.46
47366;BME280;33105;47.964;7.982;2023-02-13T18:19:36;98456.34;;;2.74;84.60
47366;BME280;33105;47.964;7.982;2023-02-13T18:22:38;98454.66;;;2.73;84.76
47366;BME280;33105;47.964;7.982;2023-02-13T18:25:39;98458.03;;;2.84;85.76
47366;BME280;33105;47.964;7.982;2023-02-13T18:28:41;98457.00;;;2.85;85.92
47366;BME280;33105;47.964;7.982;2023-02-13T18:31:43;98452.31;;;2.70;85.77
47366;BME280;33105;47.964;7.982;2023-02-13T18:34:46;98458.38;;;2.72;85.68
47366;BME280;33105;47.964;7.982;2023-02-13T18:37:47;98456.72;;;2.71;86.39
47366;BME280;33105;47.964;7.982;2023-02-13T18:40:49;98455.66;;;2.81;85.71
47366;BME280;33105;47.964;7.982;2023-02-13T18:43:55;98447.78;;;2.71;86.23
47366;BME280;33105;47.964;7.982;2023-02-13T18:46:57;98452.00;;;2.57;86.74
47366;BME280;33105;47.964;7.982;2023-02-13T18:49:58;98450.63;;;2.69;86.28
47366;BME280;33105;47.964;7.982;2023-02-13T18:53:01;98449.41;;;2.80;86.13
47366;BME280;33105;47.964;7.982;2023-02-13T18:56:04;98447.78;;;2.71;85.92
47366;BME280;33105;47.964;7.982;2023-02-13T18:59:06;98452.00;;;2.65;85.72
47366;BME280;33105;47.964;7.982;2023-02-13T19:02:09;98456.88;;;2.62;86.11
47366;BME280;33105;47.964;7.982;2023-02-13T19:05:11;98455.88;;;2.71;86.17
47366;BME280;33105;47.964;7.982;2023-02-13T19:08:13;98450.47;;;2.71;85.93